Time;durP1;ratioP1;P1;durP2;ratioP2;P2;SDS_P1;SDS_P2;PMS_P1;PMS_P2;Temp;Humidity;BMP_temperature;BMP_pressure;BME280_temperature;BME280_humidity;BME280_pressure;Samples;Min_cycle;Max_cycle;Signal;HPM_P1;HPM_P2
2023/09/05 00:00:06;;;;;;;5.07;3.13;;;18.80;99.90;;;;;;5016356;28;20559;-56
2023/09/05 00:02:32;;;;;;;5.80;3.28;;;18.90;99.90;;;;;;5017009;28;20113;-58
2023/09/05 00:04:58;;;;;;;6.32;3.22;;;18.90;99.90;;;;;;5017475;28;20117;-57
2023/09/05 00:07:24;;;;;;;7.18;3.30;;;18.70;99.90;;;;;;5022357;28;20468;-57
2023/09/05 00:09:49;;;;;;;6.43;3.17;;;18.60;99.90;;;;;;5018390;28;20041;-57
2023/09/05 00:12:15;;;;;;;5.78;3.28;;;18.70;99.90;;;;;;5020653;28;20045;-56
2023/09/05 00:14:41;;;;;;;5.93;3.20;;;18.70;99.90;;;;;;4999049;28;20063;-56
2023/09/05 00:17:06;;;;;;;9.40;3.67;;;18.70;99.90;;;;;;5014014;28;20034;-57
2023/09/05 00:19:32;;;;;;;6.97;3.45;;;18.60;99.90;;;;;;5004304;28;20448;-57
2023/09/05 00:21:58;;;;;;;9.32;3.90;;;18.60;99.90;;;;;;5019706;28;20037;-56
2023/09/05 00:24:27;;;;;;;6.75;3.42;;;18.50;99.90;;;;;;5014321;28;20042;-57
2023/09/05 00:26:54;;;;;;;5.95;3.35;;;18.40;99.90;;;;;;5014292;28;20040;-56
2023/09/05 00:29:19;;;;;;;5.88;2.80;;;18.30;99.90;;;;;;5014102;28;20589;-56
2023/09/05 00:31:48;;;;;;;5.70;3.63;;;18.40;99.90;;;;;;5021899;28;20156;-57
2023/09/05 00:34:14;;;;;;;6.30;3.75;;;18.30;99.90;;;;;;5020996;28;20068;-57
2023/09/05 00:36:40;;;;;;;6.10;3.63;;;18.20;99.90;;;;;;5022784;28;20442;-56
2023/09/05 00:39:06;;;;;;;6.75;3.65;;;18.20;99.90;;;;;;5022232;28;20438;-57
2023/09/05 00:41:32;;;;;;;4.82;3.33;;;18.20;99.90;;;;;;5017783;28;20048;-56
2023/09/05 00:43:59;;;;;;;5.32;3.55;;;18.20;99.90;;;;;;5013399;28;20042;-57
2023/09/05 00:46:25;;;;;;;8.43;3.95;;;18.20;99.90;;;;;;5017547;28;20119;-55
2023/09/05 00:48:52;;;;;;;7.25;3.60;;;18.10;99.90;;;;;;5017914;28;20064;-56
2023/09/05 00:51:19;;;;;;;6.45;3.13;;;18.10;99.90;;;;;;5011276;28;20038;-57
2023/09/05 00:53:45;;;;;;;5.78;3.53;;;18.00;99.90;;;;;;5019070;28;20033;-57
2023/09/05 00:56:11;;;;;;;7.95;3.30;;;18.00;99.90;;;;;;4999989;28;20037;-56
2023/09/05 00:58:36;;;;;;;6.70;3.65;;;18.00;99.90;;;;;;5016460;28;20479;-56
2023/09/05 01:01:02;;;;;;;6.30;3.42;;;17.90;99.90;;;;;;5018798;28;20037;-56
2023/09/05 01:03:27;;;;;;;6.68;3.72;;;17.90;99.90;;;;;;5017961;28;20377;-56
2023/09/05 01:06:00;;;;;;;6.53;3.40;;;17.80;99.90;;;;;;5017919;28;20033;-56
2023/09/05 01:08:37;;;;;;;13.30;3.78;;;17.80;99.90;;;;;;5014926;28;20043;-57
2023/09/05 01:11:08;;;;;;;9.57;3.97;;;17.70;99.90;;;;;;5018321;28;20045;-57
2023/09/05 01:13:37;;;;;;;5.97;3.50;;;17.80;99.90;;;;;;5019549;28;20100;-58
2023/09/05 01:16:03;;;;;;;7.18;3.90;;;17.80;99.90;;;;;;5014926;28;20501;-57
2023/09/05 01:18:40;;;;;;;10.10;3.90;;;17.80;99.90;;;;;;5008963;28;20481;-57
2023/09/05 01:21:43;;;;;;;7.63;4.40;;;17.70;99.90;;;;;;5012237;28;20034;-58
2023/09/05 01:24:20;;;;;;;9.32;4.10;;;17.90;99.90;;;;;;5012863;28;20596;-58
2023/09/05 01:26:46;;;;;;;8.88;4.20;;;17.60;99.90;;;;;;5011271;28;20041;-56
2023/09/05 01:29:15;;;;;;;6.55;3.80;;;17.60;99.90;;;;;;5015045;28;20350;-57
2023/09/05 01:31:41;;;;;;;7.95;4.30;;;17.60;99.90;;;;;;5022709;28;20228;-57
2023/09/05 01:34:07;;;;;;;9.70;4.30;;;17.70;99.90;;;;;;5022201;28;20372;-57
2023/09/05 01:36:32;;;;;;;6.90;3.88;;;17.70;99.90;;;;;;5008237;28;20042;-56
2023/09/05 01:38:58;;;;;;;8.18;4.55;;;17.70;99.90;;;;;;5016351;28;20084;-57
2023/09/05 01:41:24;;;;;;;11.48;4.57;;;17.80;99.90;;;;;;5014130;28;20034;-58
2023/09/05 01:43:49;;;;;;;8.60;4.15;;;17.80;99.90;;;;;;5008543;28;20034;-57
2023/09/05 01:46:15;;;;;;;7.43;3.75;;;17.70;99.90;;;;;;5016102;28;20029;-56
2023/09/05 01:48:41;;;;;;;7.20;4.35;;;17.70;99.90;;;;;;5018846;28;20045;-58
2023/09/05 01:51:07;;;;;;;7.43;4.20;;;17.70;99.90;;;;;;5014967;28;20041;-57
2023/09/05 01:53:32;;;;;;;7.10;4.00;;;17.70;99.90;;;;;;5014177;28;20127;-57
2023/09/05 01:55:58;;;;;;;6.70;3.90;;;17.50;99.90;;;;;;5021841;28;20132;-57
2023/09/05 01:58:24;;;;;;;6.78;4.20;;;17.60;99.90;;;;;;5016946;28;20037;-57
2023/09/05 02:00:50;;;;;;;6.68;3.92;;;17.40;99.90;;;;;;5012005;28;20030;-57
2023/09/05 02:03:15;;;;;;;8.43;3.95;;;17.60;99.90;;;;;;5014795;28;20037;-57
2023/09/05 02:05:41;;;;;;;6.95;3.75;;;17.70;99.90;;;;;;5014083;28;20037;-57
2023/09/05 02:08:06;;;;;;;8.20;4.10;;;17.70;99.90;;;;;;5016057;28;20037;-56
2023/09/05 02:10:32;;;;;;;7.53;3.88;;;17.60;99.90;;;;;;5018926;28;20045;-56
2023/09/05 02:12:58;;;;;;;9.07;3.55;;;17.50;99.90;;;;;;5019235;28;20927;-57
2023/09/05 02:15:23;;;;;;;8.45;4.10;;;17.60;99.90;;;;;;5019076;28;20045;-57
2023/09/05 02:17:49;;;;;;;10.75;3.78;;;17.60;99.90;;;;;;5014875;28;20030;-56
2023/09/05 02:20:15;;;;;;;9.77;4.03;;;17.70;99.90;;;;;;5012982;28;20120;-57
2023/09/05 02:22:43;;;;;;;8.82;3.95;;;17.70;99.90;;;;;;5021380;28;20021;-56
2023/09/05 02:25:08;;;;;;;10.38;3.80;;;17.80;99.90;;;;;;5015107;28;20691;-57
2023/09/05 02:27:34;;;;;;;7.40;3.60;;;17.70;99.90;;;;;;5013095;28;20034;-57
2023/09/05 02:30:01;;;;;;;9.30;4.43;;;17.60;99.90;;;;;;5017601;28;20137;-58
2023/09/05 02:32:29;;;;;;;9.25;4.18;;;17.70;99.90;;;;;;5018280;28;20492;-58
2023/09/05 02:34:56;;;;;;;8.25;3.60;;;17.60;99.90;;;;;;5021022;28;20030;-56
2023/09/05 02:37:21;;;;;;;8.68;3.75;;;17.70;99.90;;;;;;5024039;28;20122;-57
2023/09/05 02:39:47;;;;;;;5.65;3.20;;;17.70;99.90;;;;;;5017153;28;20109;-57
2023/09/05 02:42:13;;;;;;;6.88;3.53;;;17.80;99.90;;;;;;5017453;28;20037;-57
2023/09/05 02:44:38;;;;;;;7.40;3.85;;;17.80;99.90;;;;;;5018937;28;20037;-58
2023/09/05 02:47:04;;;;;;;5.05;3.30;;;18.20;99.90;;;;;;5020611;28;20488;-58
2023/09/05 02:49:31;;;;;;;7.10;3.20;;;17.90;99.90;;;;;;5012882;28;20426;-57
2023/09/05 02:51:57;;;;;;;6.82;2.80;;;18.10;99.90;;;;;;5024463;28;20033;-57
2023/09/05 02:54:23;;;;;;;9.68;3.40;;;18.00;99.90;;;;;;5017003;28;20046;-57
2023/09/05 02:56:49;;;;;;;4.68;2.47;;;17.80;99.90;;;;;;5009513;28;20055;-58
2023/09/05 02:59:15;;;;;;;6.25;2.90;;;17.90;99.90;;;;;;5004706;28;20488;-58
2023/09/05 03:01:40;;;;;;;6.57;3.03;;;18.00;99.90;;;;;;5004641;28;20037;-57
2023/09/05 03:04:06;;;;;;;9.43;3.33;;;18.00;99.90;;;;;;5021362;28;20053;-58
2023/09/05 03:06:31;;;;;;;4.63;2.72;;;18.10;99.90;;;;;;5019383;28;20128;-57
2023/09/05 03:08:57;;;;;;;4.90;2.90;;;18.10;99.90;;;;;;5019800;28;20033;-57
2023/09/05 03:11:22;;;;;;;5.60;2.80;;;18.10;99.90;;;;;;5018844;28;20045;-57
2023/09/05 03:13:48;;;;;;;6.72;2.90;;;18.10;99.90;;;;;;5017237;28;20034;-57
2023/09/05 03:16:14;;;;;;;5.45;3.20;;;18.30;99.90;;;;;;5015410;28;20120;-57
2023/09/05 03:18:40;;;;;;;6.80;3.10;;;17.80;99.90;;;;;;5011829;28;20045;-57
2023/09/05 03:21:05;;;;;;;5.30;2.88;;;17.70;99.90;;;;;;5015605;28;20040;-56
2023/09/05 03:23:31;;;;;;;6.15;2.90;;;17.80;99.90;;;;;;5017918;28;20042;-56
2023/09/05 03:25:57;;;;;;;7.68;3.10;;;17.80;99.90;;;;;;5020478;28;20061;-57
2023/09/05 03:28:23;;;;;;;5.18;3.10;;;17.70;99.90;;;;;;5012852;28;20037;-55
2023/09/05 03:30:49;;;;;;;8.40;2.92;;;17.40;99.90;;;;;;5020548;28;20033;-56
2023/09/05 03:33:15;;;;;;;6.80;2.60;;;17.80;99.90;;;;;;5020497;28;20044;-56
2023/09/05 03:35:42;;;;;;;6.00;2.78;;;17.80;99.90;;;;;;5016996;28;20484;-58
2023/09/05 03:38:08;;;;;;;7.53;3.13;;;17.90;99.90;;;;;;5015957;28;20049;-58
2023/09/05 03:40:34;;;;;;;8.20;3.15;;;17.90;99.90;;;;;;5024253;28;20535;-56
2023/09/05 03:43:00;;;;;;;7.50;3.20;;;17.90;99.90;;;;;;5023951;28;20035;-57
2023/09/05 03:45:30;;;;;;;6.00;2.90;;;17.90;99.90;;;;;;5017167;28;20349;-58
2023/09/05 03:47:55;;;;;;;5.55;2.75;;;18.00;99.90;;;;;;5018019;28;20255;-57
2023/09/05 03:50:21;;;;;;;5.28;2.90;;;17.90;99.90;;;;;;5022471;28;20045;-58
2023/09/05 03:52:47;;;;;;;6.53;3.40;;;17.90;99.90;;;;;;5013560;28;20034;-56
2023/09/05 03:55:13;;;;;;;7.28;2.95;;;17.90;99.90;;;;;;5020178;28;20041;-58
2023/09/05 03:57:39;;;;;;;4.22;2.65;;;17.80;99.90;;;;;;5021540;28;20025;-58
2023/09/05 04:00:07;;;;;;;8.15;3.35;;;17.80;99.90;;;;;;5020571;28;20508;-56
2023/09/05 04:02:33;;;;;;;4.43;2.95;;;19.70;99.90;;;;;;5022690;28;20103;-57
2023/09/05 04:04:58;;;;;;;7.07;3.25;;;17.70;99.90;;;;;;5021632;28;20045;-57
2023/09/05 04:07:24;;;;;;;5.88;3.00;;;17.50;99.90;;;;;;5020387;28;20400;-56
2023/09/05 04:09:49;;;;;;;7.32;3.00;;;17.70;99.90;;;;;;5019301;28;20587;-56
2023/09/05 04:12:15;;;;;;;6.65;3.38;;;17.60;99.90;;;;;;5015191;28;20492;-57
2023/09/05 04:14:41;;;;;;;6.60;3.25;;;17.40;99.90;;;;;;5024531;28;20041;-57
2023/09/05 04:17:07;;;;;;;7.43;3.40;;;17.30;99.90;;;;;;5015417;28;20044;-58
2023/09/05 04:19:32;;;;;;;8.05;3.55;;;17.30;99.90;;;;;;5017266;28;20044;-57
2023/09/05 04:21:58;;;;;;;5.00;3.38;;;;;;;;;;5023926;28;20029;-58
2023/09/05 04:24:24;;;;;;;7.00;3.60;;;17.20;99.90;;;;;;5009385;28;20121;-56
2023/09/05 04:26:50;;;;;;;6.60;3.10;;;16.90;99.90;;;;;;5023905;28;20021;-58
2023/09/05 04:29:16;;;;;;;4.47;2.78;;;17.20;99.90;;;;;;5007265;28;20389;-58
2023/09/05 04:31:42;;;;;;;7.13;3.08;;;17.10;99.90;;;;;;5019438;28;20158;-57
2023/09/05 04:34:08;;;;;;;7.43;3.25;;;17.10;99.90;;;;;;5017493;28;20405;-57
2023/09/05 04:36:36;;;;;;;4.38;2.88;;;17.10;99.90;;;;;;5019377;28;20095;-56
2023/09/05 04:39:05;;;;;;;6.13;3.35;;;17.10;99.90;;;;;;5023129;28;20116;-57
2023/09/05 04:41:30;;;;;;;5.75;3.40;;;16.90;99.90;;;;;;5017514;28;20331;-58
2023/09/05 04:43:56;;;;;;;9.60;3.50;;;16.90;99.90;;;;;;5010307;28;20068;-57
2023/09/05 04:46:22;;;;;;;5.75;3.40;;;16.90;99.90;;;;;;5021415;28;20037;-57
2023/09/05 04:48:49;;;;;;;5.45;3.45;;;16.80;99.90;;;;;;5023409;28;20124;-57
2023/09/05 04:51:14;;;;;;;4.97;3.22;;;16.50;99.90;;;;;;5013785;28;20408;-57
2023/09/05 04:53:40;;;;;;;8.32;3.90;;;16.50;99.90;;;;;;5020543;28;20041;-56
2023/09/05 04:56:06;;;;;;;6.95;3.50;;;16.60;99.90;;;;;;5017616;28;20041;-56
2023/09/05 04:58:32;;;;;;;6.85;3.20;;;16.70;99.90;;;;;;5015973;28;20056;-57
2023/09/05 05:01:02;;;;;;;5.95;3.25;;;16.90;99.90;;;;;;5014063;28;20489;-57
2023/09/05 05:03:34;;;;;;;8.43;3.67;;;16.80;99.90;;;;;;5017982;28;20037;-55
2023/09/05 05:06:01;;;;;;;8.25;3.50;;;16.80;99.90;;;;;;5020830;28;20084;-57
2023/09/05 05:08:26;;;;;;;6.25;3.45;;;16.50;99.90;;;;;;5012837;28;20515;-56
2023/09/05 05:10:52;;;;;;;7.07;3.13;;;16.50;99.90;;;;;;5016276;28;20041;-56
2023/09/05 05:13:20;;;;;;;5.13;3.40;;;16.40;99.90;;;;;;5020391;28;20220;-56
2023/09/05 05:15:46;;;;;;;6.05;3.35;;;16.50;99.90;;;;;;5012198;28;20033;-56
2023/09/05 05:18:15;;;;;;;6.53;3.38;;;16.70;99.90;;;;;;4993356;28;20042;-57
2023/09/05 05:20:41;;;;;;;8.02;4.03;;;16.80;99.90;;;;;;5014388;28;20471;-55
2023/09/05 05:23:06;;;;;;;7.72;4.00;;;16.90;99.90;;;;;;5009737;28;20037;-57
2023/09/05 05:25:32;;;;;;;7.15;3.72;;;17.10;99.90;;;;;;5011794;28;20120;-56
2023/09/05 05:27:58;;;;;;;12.35;4.45;;;17.00;99.90;;;;;;5013875;28;20041;-55
2023/09/05 05:30:24;;;;;;;9.10;4.35;;;17.00;99.90;;;;;;5016592;28;20629;-56
2023/09/05 05:32:49;;;;;;;10.65;4.80;;;16.80;99.90;;;;;;5018021;28;20038;-57
2023/09/05 05:35:15;;;;;;;19.35;5.10;;;16.80;99.90;;;;;;5014282;28;20046;-57
2023/09/05 05:37:41;;;;;;;11.18;4.88;;;16.80;99.90;;;;;;5021312;28;20662;-57
2023/09/05 05:40:10;;;;;;;13.25;4.88;;;16.70;99.90;;;;;;5011721;28;20440;-57
2023/09/05 05:42:36;;;;;;;9.80;4.28;;;16.80;99.90;;;;;;5013708;28;20519;-57
2023/09/05 05:45:02;;;;;;;10.13;4.75;;;16.80;99.90;;;;;;5015830;28;20096;-55
2023/09/05 05:47:27;;;;;;;7.90;4.35;;;16.80;99.90;;;;;;5013097;28;20082;-57
2023/09/05 05:49:53;;;;;;;8.93;4.78;;;16.70;99.90;;;;;;5002422;28;20417;-57
2023/09/05 05:52:19;;;;;;;7.60;4.47;;;16.90;99.90;;;;;;5015353;28;20370;-57
2023/09/05 05:54:44;;;;;;;12.23;4.70;;;17.10;99.90;;;;;;4996379;28;20379;-57
2023/09/05 05:57:10;;;;;;;12.20;4.72;;;17.40;99.90;;;;;;5015043;28;20030;-57
2023/09/05 05:59:35;;;;;;;12.00;4.72;;;17.50;99.90;;;;;;5018142;28;20441;-56
2023/09/05 06:02:01;;;;;;;9.68;4.32;;;17.50;99.90;;;;;;5018436;28;20057;-56
2023/09/05 06:04:27;;;;;;;7.18;4.13;;;17.50;99.90;;;;;;5018026;28;20044;-56
2023/09/05 06:06:52;;;;;;;7.07;4.30;;;17.50;99.90;;;;;;5023177;28;20481;-56
2023/09/05 06:09:18;;;;;;;11.10;3.83;;;17.70;99.90;;;;;;5013395;28;20045;-57
2023/09/05 06:11:44;;;;;;;6.90;3.40;;;17.80;99.90;;;;;;5010615;28;20061;-56
2023/09/05 06:14:10;;;;;;;10.07;3.70;;;17.80;99.90;;;;;;5014789;28;20417;-57
2023/09/05 06:16:37;;;;;;;13.13;4.85;;;17.90;99.90;;;;;;5015696;28;20041;-56
2023/09/05 06:19:02;;;;;;;7.10;4.20;;;18.00;99.90;;;;;;5018082;28;20585;-56
2023/09/05 06:21:28;;;;;;;9.27;3.97;;;18.10;99.90;;;;;;5020295;28;20099;-56
2023/09/05 06:23:53;;;;;;;10.38;4.63;;;18.30;99.90;;;;;;5017541;28;20041;-56
2023/09/05 06:26:19;;;;;;;11.43;3.65;;;18.40;99.90;;;;;;5016603;28;20033;-56
2023/09/05 06:28:44;;;;;;;7.38;3.42;;;18.60;99.90;;;;;;5015997;28;20483;-56
2023/09/05 06:31:11;;;;;;;18.10;5.30;;;18.80;99.90;;;;;;5020792;28;20049;-56
2023/09/05 06:33:36;;;;;;;13.38;4.38;;;18.80;99.90;;;;;;5020982;28;20592;-57
2023/09/05 06:36:09;;;;;;;6.75;3.25;;;19.00;99.90;;;;;;5023354;28;20045;-57
2023/09/05 06:38:36;;;;;;;10.95;3.47;;;19.10;99.90;;;;;;5026060;28;20091;-57
2023/09/05 06:41:09;;;;;;;9.30;3.33;;;19.30;99.90;;;;;;5022429;28;20060;-57
2023/09/05 06:43:36;;;;;;;7.30;3.40;;;19.60;99.90;;;;;;5023886;28;20040;-57
2023/09/05 06:46:03;;;;;;;10.40;3.78;;;19.20;99.90;;;;;;5025951;28;20110;-58
2023/09/05 06:48:29;;;;;;;6.45;3.10;;;19.60;99.90;;;;;;5022919;28;20641;-58
2023/09/05 06:50:56;;;;;;;8.43;5.00;;;19.50;99.90;;;;;;5014178;28;20045;-58
2023/09/05 06:53:22;;;;;;;6.15;3.50;;;19.70;99.90;;;;;;5021445;28;20037;-57
2023/09/05 06:55:48;;;;;;;8.05;3.30;;;19.70;99.90;;;;;;5021422;28;20056;-56
2023/09/05 06:58:14;;;;;;;8.15;3.20;;;19.80;99.90;;;;;;5019168;28;20048;-56
2023/09/05 07:00:39;;;;;;;5.63;3.03;;;19.90;99.90;;;;;;5024449;28;20037;-56
2023/09/05 07:03:05;;;;;;;8.80;3.25;;;20.00;99.90;;;;;;5024205;28;20120;-57
2023/09/05 07:05:37;;;;;;;7.85;3.35;;;20.10;99.90;;;;;;5022294;28;20033;-57
2023/09/05 07:08:03;;;;;;;6.47;3.35;;;20.10;99.90;;;;;;5021031;28;20044;-57
2023/09/05 07:10:29;;;;;;;9.10;3.53;;;20.20;99.90;;;;;;5021674;28;20030;-57
2023/09/05 07:12:54;;;;;;;7.95;3.50;;;20.20;99.90;;;;;;5021404;28;20028;-57
2023/09/05 07:15:20;;;;;;;9.05;3.38;;;20.40;99.90;;;;;;5022240;28;20120;-57
2023/09/05 07:17:45;;;;;;;8.20;3.85;;;20.40;99.90;;;;;;5024019;28;20025;-57
2023/09/05 07:20:11;;;;;;;9.48;3.50;;;20.50;99.90;;;;;;5021600;28;20033;-56
2023/09/05 07:22:37;;;;;;;8.25;3.35;;;20.60;99.90;;;;;;5020101;28;20274;-56
2023/09/05 07:25:03;;;;;;;5.03;3.15;;;20.80;99.90;;;;;;5023534;28;20038;-58
2023/09/05 07:27:28;;;;;;;5.47;3.38;;;20.70;99.90;;;;;;5018242;28;20625;-57
2023/09/05 07:29:54;;;;;;;9.60;3.53;;;20.70;99.90;;;;;;5021303;28;20033;-57
2023/09/05 07:32:20;;;;;;;8.00;3.53;;;21.00;99.90;;;;;;5023149;28;20044;-57
2023/09/05 07:34:48;;;;;;;9.55;3.40;;;21.10;99.90;;;;;;5014167;28;20116;-56
2023/09/05 07:37:14;;;;;;;12.80;7.85;;;21.10;99.90;;;;;;5015303;28;20041;-55
2023/09/05 07:39:44;;;;;;;7.80;4.13;;;21.60;99.90;;;;;;5020783;28;20057;-55
2023/09/05 07:42:09;;;;;;;7.10;3.25;;;21.30;99.90;;;;;;5014147;28;20125;-55
2023/09/05 07:44:35;;;;;;;7.35;3.45;;;21.20;99.90;;;;;;5013303;28;20080;-55
2023/09/05 07:47:00;;;;;;;8.45;3.55;;;21.30;99.90;;;;;;4999214;28;20049;-55
2023/09/05 07:49:27;;;;;;;7.50;3.35;;;21.40;99.90;;;;;;5019547;28;20041;-55
2023/09/05 07:51:54;;;;;;;7.13;3.55;;;21.30;99.90;;;;;;5020092;28;20041;-55
2023/09/05 07:54:20;;;;;;;6.70;3.42;;;21.70;99.90;;;;;;5016745;28;20060;-55
2023/09/05 07:56:46;;;;;;;6.63;3.33;;;22.00;99.90;;;;;;5014293;28;20443;-54
2023/09/05 07:59:12;;;;;;;8.02;3.28;;;21.90;99.90;;;;;;5019841;28;20033;-55
2023/09/05 08:01:37;;;;;;;5.38;3.30;;;21.80;99.90;;;;;;5002216;28;20398;-55
2023/09/05 08:04:03;;;;;;;8.20;3.63;;;21.90;99.90;;;;;;5020702;28;20140;-56
2023/09/05 08:06:29;;;;;;;7.25;3.30;;;22.00;99.90;;;;;;5014789;28;20155;-55
2023/09/05 08:08:55;;;;;;;9.68;3.65;;;21.90;99.90;;;;;;5018515;28;20100;-55
2023/09/05 08:11:20;;;;;;;12.07;3.22;;;22.10;99.90;;;;;;5021369;28;20037;-56
2023/09/05 08:13:46;;;;;;;9.27;3.50;;;22.10;99.90;;;;;;5020483;28;20029;-56
2023/09/05 08:16:11;;;;;;;12.23;3.70;;;22.20;99.90;;;;;;5017114;28;20048;-56
2023/09/05 08:18:37;;;;;;;7.43;3.05;;;22.30;99.90;;;;;;5015352;28;20037;-56
2023/09/05 08:21:04;;;;;;;6.95;3.10;;;22.30;99.90;;;;;;5016037;28;20069;-54
2023/09/05 08:23:31;;;;;;;5.90;2.85;;;22.40;99.90;;;;;;5015739;28;20029;-55
2023/09/05 08:25:57;;;;;;;5.18;3.35;;;22.50;99.90;;;;;;5015278;28;20041;-56
2023/09/05 08:28:26;;;;;;;7.95;3.28;;;22.40;99.90;;;;;;5015369;28;20106;-56
2023/09/05 08:30:59;;;;;;;6.63;3.92;;;22.50;99.90;;;;;;5005664;28;20373;-55
2023/09/05 08:33:25;;;;;;;6.22;3.42;;;22.60;99.90;;;;;;5016079;28;20033;-56
2023/09/05 08:35:50;;;;;;;8.30;3.15;;;22.70;99.90;;;;;;5024111;28;20030;-55
2023/09/05 08:38:16;;;;;;;7.65;3.30;;;22.80;99.90;;;;;;5014915;28;20036;-55
2023/09/05 08:40:49;;;;;;;11.20;3.78;;;22.80;99.90;;;;;;5091941;27;20903;-57
2023/09/05 08:43:17;;;;;;;4.65;2.95;;;22.90;99.90;;;;;;5072045;27;20097;-57
2023/09/05 08:45:45;;;;;;;8.85;3.03;;;22.80;99.90;;;;;;5070051;27;20040;-57
2023/09/05 08:48:10;;;;;;;5.90;3.10;;;22.90;99.90;;;;;;5072928;27;20062;-57
2023/09/05 08:50:37;;;;;;;8.48;3.17;;;22.90;99.90;;;;;;5072882;27;20515;-55
2023/09/05 08:53:11;;;;;;;7.80;3.15;;;23.10;99.90;;;;;;5062523;28;20033;-56
2023/09/05 08:55:40;;;;;;;10.63;3.20;;;23.10;99.90;;;;;;5068447;27;20050;-57
2023/09/05 08:58:17;;;;;;;7.57;3.08;;;23.20;99.90;;;;;;5065828;27;20115;-57
2023/09/05 09:00:43;;;;;;;9.80;3.30;;;23.20;99.90;;;;;;5071229;27;20123;-57
2023/09/05 09:03:09;;;;;;;5.18;2.72;;;23.20;99.90;;;;;;5068793;27;20032;-55
2023/09/05 09:05:36;;;;;;;4.88;3.20;;;23.30;99.90;;;;;;5068887;27;20122;-57
2023/09/05 09:08:03;;;;;;;6.13;2.70;;;23.30;99.90;;;;;;5071028;27;20066;-55
2023/09/05 09:10:28;;;;;;;6.35;3.38;;;23.40;99.90;;;;;;5071832;27;20101;-57
2023/09/05 09:13:12;;;;;;;9.13;3.10;;;23.50;99.90;;;;;;5069617;27;20041;-56
2023/09/05 09:15:42;;;;;;;7.03;3.25;;;23.30;99.90;;;;;;5047315;28;20067;-57
2023/09/05 09:18:12;;;;;;;6.78;3.15;;;23.60;99.90;;;;;;5038255;28;20040;-57
2023/09/05 09:20:45;;;;;;;6.72;2.80;;;23.70;99.90;;;;;;5038970;28;20404;-58
2023/09/05 09:23:11;;;;;;;7.43;2.95;;;23.70;99.90;;;;;;5015803;28;20460;-57
2023/09/05 09:25:49;;;;;;;5.93;2.92;;;23.80;99.90;;;;;;5018032;28;20037;-57
2023/09/05 09:28:28;;;;;;;7.30;2.80;;;23.70;99.90;;;;;;5021649;28;20080;-57
2023/09/05 09:30:56;;;;;;;4.25;2.90;;;23.80;99.90;;;;;;5018944;28;20052;-56
2023/09/05 09:33:22;;;;;;;8.38;2.78;;;23.90;99.90;;;;;;5019988;28;20752;-55
2023/09/05 09:36:00;;;;;;;6.00;2.70;;;23.90;99.90;;;;;;5017391;28;20033;-56
2023/09/05 09:38:26;;;;;;;8.02;3.28;;;23.90;99.90;;;;;;5020225;28;20172;-57
2023/09/05 09:40:52;;;;;;;5.13;3.10;;;23.90;99.90;;;;;;5018454;28;20366;-56
2023/09/05 09:43:17;;;;;;;4.63;2.70;;;23.90;99.90;;;;;;5015892;28;20028;-57
2023/09/05 09:45:43;;;;;;;4.38;3.00;;;24.10;99.90;;;;;;5022050;28;20056;-56
2023/09/05 09:48:10;;;;;;;5.57;2.85;;;24.10;99.90;;;;;;5016845;28;20029;-56
2023/09/05 09:50:36;;;;;;;7.32;2.95;;;24.10;99.90;;;;;;5019307;28;20022;-57
2023/09/05 09:53:04;;;;;;;8.65;2.90;;;24.20;99.90;;;;;;5013543;28;20545;-57
2023/09/05 09:55:32;;;;;;;10.00;3.35;;;24.20;99.90;;;;;;5007228;28;20022;-57
2023/09/05 09:58:07;;;;;;;5.15;2.63;;;24.20;99.90;;;;;;5009618;28;20243;-57
2023/09/05 10:00:35;;;;;;;5.07;2.63;;;24.30;99.90;;;;;;4998640;28;20412;-57
2023/09/05 10:03:04;;;;;;;5.75;3.92;;;24.30;99.90;;;;;;5005565;28;20116;-57
2023/09/05 10:05:31;;;;;;;6.43;3.03;;;24.30;99.90;;;;;;5010161;28;20097;-56
2023/09/05 10:07:58;;;;;;;5.32;2.72;;;25.00;99.90;;;;;;5011189;28;20041;-56
2023/09/05 10:10:25;;;;;;;6.32;2.58;;;24.40;99.90;;;;;;5013704;28;20037;-55
2023/09/05 10:12:52;;;;;;;6.05;2.65;;;24.40;99.90;;;;;;5010531;28;20073;-55
2023/09/05 10:15:18;;;;;;;5.97;3.05;;;24.50;99.90;;;;;;5017333;28;20466;-56
2023/09/05 10:17:45;;;;;;;4.75;2.67;;;24.50;99.90;;;;;;5015016;28;20033;-56
2023/09/05 10:20:14;;;;;;;3.95;2.53;;;24.70;99.90;;;;;;5011474;28;20045;-56
2023/09/05 10:22:44;;;;;;;5.30;2.80;;;24.60;99.90;;;;;;5004635;28;20155;-56
2023/09/05 10:25:11;;;;;;;5.55;2.78;;;24.60;99.90;;;;;;5012919;28;20094;-56
2023/09/05 10:27:37;;;;;;;7.32;2.28;;;24.60;99.90;;;;;;5010531;28;20037;-55
2023/09/05 10:30:03;;;;;;;3.35;1.98;;;24.80;99.90;;;;;;5015522;28;20053;-56
2023/09/05 10:32:31;;;;;;;6.22;2.40;;;24.70;99.90;;;;;;5016572;28;20032;-56
2023/09/05 10:35:01;;;;;;;4.50;2.13;;;24.80;99.90;;;;;;5014987;28;20152;-55
2023/09/05 10:37:51;;;;;;;7.75;2.60;;;24.80;99.90;;;;;;5010025;28;20563;-56
2023/09/05 10:40:18;;;;;;;3.90;2.20;;;24.80;99.90;;;;;;5009209;28;20045;-56
2023/09/05 10:42:53;;;;;;;6.78;2.90;;;24.80;99.90;;;;;;5006050;28;20037;-56
2023/09/05 10:45:22;;;;;;;7.55;2.45;;;24.80;99.90;;;;;;5003376;28;20540;-56
2023/09/05 10:47:53;;;;;;;3.53;2.20;;;24.80;99.90;;;;;;5008367;28;20034;-56
2023/09/05 10:50:20;;;;;;;4.40;2.17;;;24.90;99.90;;;;;;5007229;28;20041;-55
2023/09/05 10:52:49;;;;;;;5.75;2.40;;;24.90;99.90;;;;;;5001818;28;20034;-56
2023/09/05 10:55:32;;;;;;;5.15;2.60;;;24.90;99.90;;;;;;5007923;28;20034;-56
2023/09/05 10:57:58;;;;;;;5.88;2.40;;;24.90;99.90;;;;;;5006294;28;20148;-56
2023/09/05 11:00:26;;;;;;;5.25;2.20;;;25.00;99.90;;;;;;5007968;28;20107;-57
2023/09/05 11:02:56;;;;;;;5.68;2.25;;;25.10;99.90;;;;;;5011141;28;20124;-57
2023/09/05 11:05:26;;;;;;;3.63;1.98;;;25.00;99.90;;;;;;5024622;28;20497;-57
2023/09/05 11:07:54;;;;;;;6.15;2.20;;;25.10;99.90;;;;;;5008762;28;20086;-55
2023/09/05 11:10:31;;;;;;;3.28;2.08;;;25.20;99.90;;;;;;5019394;28;20666;-57
2023/09/05 11:13:06;;;;;;;4.35;2.35;;;25.20;99.90;;;;;;5014689;28;20464;-55
2023/09/05 11:15:35;;;;;;;5.82;2.35;;;25.30;99.90;;;;;;5007630;28;20535;-57
2023/09/05 11:18:04;;;;;;;4.75;2.05;;;25.30;99.90;;;;;;5010700;28;20044;-57
2023/09/05 11:20:47;;;;;;;6.15;2.10;;;25.30;99.90;;;;;;5007059;28;20084;-57
2023/09/05 11:23:12;;;;;;;4.75;2.35;;;25.60;99.90;;;;;;5030980;28;20393;-57
2023/09/05 11:25:43;;;;;;;3.05;2.03;;;25.30;99.90;;;;;;5030857;28;20042;-57
2023/09/05 11:28:10;;;;;;;5.35;1.90;;;25.40;99.90;;;;;;5034600;28;20033;-56
2023/09/05 11:30:37;;;;;;;3.70;2.00;;;25.50;99.90;;;;;;5038474;28;20029;-57
2023/09/05 11:33:07;;;;;;;3.20;2.20;;;26.20;99.90;;;;;;5033616;28;20040;-56
2023/09/05 11:35:33;;;;;;;4.05;2.15;;;25.70;99.90;;;;;;5034947;28;20155;-57
2023/09/05 11:37:59;;;;;;;5.38;2.00;;;25.70;99.90;;;;;;5032162;28;20451;-57
2023/09/05 11:40:25;;;;;;;3.92;1.95;;;25.30;99.90;;;;;;5036732;28;20052;-58
2023/09/05 11:43:03;;;;;;;3.55;2.45;;;25.60;99.90;;;;;;5034712;28;20128;-57
2023/09/05 11:45:30;;;;;;;5.93;2.33;;;25.60;99.90;;;;;;5023657;28;20658;-57
2023/09/05 11:47:58;;;;;;;4.70;2.47;;;25.60;99.90;;;;;;5025738;28;20041;-57
2023/09/05 11:50:25;;;;;;;5.28;2.30;;;25.70;99.90;;;;;;5024607;28;20391;-56
2023/09/05 11:52:52;;;;;;;6.70;2.15;;;25.70;99.90;;;;;;5027474;28;20030;-56
2023/09/05 11:55:23;;;;;;;7.13;2.30;;;25.80;99.90;;;;;;5031776;28;20460;-56
2023/09/05 11:57:53;;;;;;;4.80;2.17;;;25.70;99.90;;;;;;5025453;28;20042;-57
2023/09/05 12:00:23;;;;;;;2.97;2.08;;;25.70;99.90;;;;;;5026237;28;20124;-57
2023/09/05 12:02:54;;;;;;;4.18;2.30;;;25.80;99.90;;;;;;5026453;28;20052;-55
2023/09/05 12:05:19;;;;;;;4.47;2.00;;;25.90;99.90;;;;;;5027845;28;20044;-56
2023/09/05 12:07:55;;;;;;;5.75;2.53;;;25.90;99.90;;;;;;5036455;28;20037;-57
2023/09/05 12:10:26;;;;;;;4.45;2.15;;;25.90;99.90;;;;;;5023337;28;20438;-57
2023/09/05 12:12:58;;;;;;;2.63;2.17;;;25.90;99.90;;;;;;5016224;28;20056;-57
2023/09/05 12:15:34;;;;;;;3.58;1.90;;;26.00;99.90;;;;;;5000939;28;20460;-58
2023/09/05 12:18:05;;;;;;;6.20;1.95;;;26.10;99.90;;;;;;5000666;28;20037;-57
2023/09/05 12:20:31;;;;;;;3.90;1.98;;;26.00;99.90;;;;;;5002211;28;20410;-57
2023/09/05 12:22:57;;;;;;;2.80;1.98;;;25.90;99.90;;;;;;5002772;28;20352;-56
2023/09/05 12:25:24;;;;;;;3.80;1.88;;;26.00;99.90;;;;;;5002359;28;20038;-57
2023/09/05 12:27:54;;;;;;;3.60;2.15;;;26.00;99.90;;;;;;4999999;28;20048;-56
2023/09/05 12:30:29;;;;;;;11.73;6.05;;;26.00;99.90;;;;;;4998481;28;20038;-57
2023/09/05 12:33:03;;;;;;;4.97;1.95;;;26.00;99.90;;;;;;4996796;28;20595;-57
2023/09/05 12:35:31;;;;;;;5.38;2.20;;;26.20;99.90;;;;;;5001907;28;20045;-57
2023/09/05 12:38:04;;;;;;;4.85;2.03;;;26.10;99.90;;;;;;5011986;28;20045;-56
2023/09/05 12:40:33;;;;;;;3.70;1.90;;;26.10;99.90;;;;;;4995039;28;20060;-57
2023/09/05 12:43:00;;;;;;;2.58;1.90;;;26.20;99.90;;;;;;4988494;28;20038;-56
2023/09/05 12:45:26;;;;;;;7.75;2.30;;;26.10;99.90;;;;;;4993736;28;20078;-57